createdAt,value
2018-11-25T00:00:06.837Z,71.83
2018-11-25T00:00:38.519Z,72.12
2018-11-25T00:01:09.643Z,72.16
2018-11-25T00:01:40.746Z,72.12
2018-11-25T00:02:11.866Z,72.42
2018-11-25T00:02:42.971Z,72.62
2018-11-25T00:03:14.141Z,72.69
2018-11-25T00:03:45.248Z,73.01
2018-11-25T00:04:17.080Z,72.83
2018-11-25T00:04:48.214Z,72.41
2018-11-25T00:05:19.348Z,72.87
2018-11-25T00:05:50.489Z,72.58
2018-11-25T00:06:21.955Z,72.56
2018-11-25T00:06:53.083Z,72.83
2018-11-25T00:07:24.396Z,73.02
2018-11-25T00:07:55.547Z,72.61
2018-11-25T00:08:26.684Z,72.88
2018-11-25T00:08:57.815Z,73.10
2018-11-25T00:09:28.926Z,72.91
2018-11-25T00:10:00.067Z,73.26
2018-11-25T00:10:31.182Z,73.18
2018-11-25T00:11:02.347Z,73.27
2018-11-25T00:11:33.568Z,73.48
2018-11-25T00:12:04.754Z,73.40
2018-11-25T00:12:35.892Z,73.80
2018-11-25T00:13:07.017Z,74.42
2018-11-25T00:13:38.159Z,75.05
2018-11-25T00:14:09.302Z,75.28
2018-11-25T00:14:40.456Z,75.26
2018-11-25T00:15:11.555Z,74.67
2018-11-25T00:15:42.687Z,74.49
2018-11-25T00:16:13.816Z,74.53
2018-11-25T00:16:44.959Z,74.35
2018-11-25T00:17:16.094Z,73.81
2018-11-25T00:17:47.358Z,73.62
2018-11-25T00:18:18.505Z,73.39
2018-11-25T00:18:49.595Z,73.38
2018-11-25T00:19:20.698Z,73.19
2018-11-25T00:19:51.824Z,73.60
2018-11-25T00:20:22.942Z,73.41
2018-11-25T00:20:54.059Z,73.48
2018-11-25T00:21:25.218Z,73.26
2018-11-25T00:21:56.355Z,72.86
2018-11-25T00:22:27.474Z,72.96
2018-11-25T00:22:58.691Z,73.21
2018-11-25T00:23:29.828Z,72.83
2018-11-25T00:24:01.090Z,72.92
2018-11-25T00:24:33.299Z,72.89
2018-11-25T00:25:04.608Z,72.83
2018-11-25T00:25:35.737Z,72.83
2018-11-25T00:26:07.719Z,72.55
2018-11-25T00:26:38.871Z,72.47
2018-11-25T00:27:09.995Z,72.90
2018-11-25T00:27:41.200Z,72.69
2018-11-25T00:28:12.359Z,73.06
2018-11-25T00:28:43.853Z,73.07
2018-11-25T00:29:14.972Z,73.10
2018-11-25T00:29:46.104Z,72.82
2018-11-25T00:30:17.276Z,72.28
2018-11-25T00:30:48.412Z,72.40
2018-11-25T00:31:19.550Z,72.36
2018-11-25T00:31:50.675Z,72.49
2018-11-25T00:32:22.365Z,72.76
2018-11-25T00:32:53.499Z,72.85
2018-11-25T00:33:24.682Z,72.62
2018-11-25T00:33:55.800Z,72.84
2018-11-25T00:34:27.027Z,72.83
2018-11-25T00:34:58.160Z,73.16
2018-11-25T00:35:29.272Z,72.95
2018-11-25T00:36:00.399Z,73.26
2018-11-25T00:36:31.513Z,73.45
2018-11-25T00:37:02.823Z,73.53
2018-11-25T00:37:33.926Z,73.01
2018-11-25T00:38:05.051Z,73.18
2018-11-25T00:38:36.167Z,73.39
2018-11-25T00:39:07.320Z,72.99
2018-11-25T00:39:39.736Z,73.01
2018-11-25T00:40:10.947Z,73.04
2018-11-25T00:40:42.904Z,73.16
2018-11-25T00:41:14.037Z,73.60
2018-11-25T00:41:45.176Z,73.59
2018-11-25T00:42:16.325Z,73.64
2018-11-25T00:42:47.435Z,73.60
2018-11-25T00:43:18.552Z,73.65
2018-11-25T00:43:49.721Z,73.81
2018-11-25T00:44:20.883Z,73.52
2018-11-25T00:44:52.017Z,73.65
2018-11-25T00:45:23.891Z,74.16
2018-11-25T00:45:55.097Z,74.19
2018-11-25T00:46:26.246Z,73.97
2018-11-25T00:46:58.485Z,74.32
2018-11-25T00:47:29.589Z,74.26
2018-11-25T00:48:01.160Z,74.13
2018-11-25T00:48:32.284Z,74.29
2018-11-25T00:49:03.389Z,74.18
2018-11-25T00:49:34.522Z,74.74
2018-11-25T00:50:05.652Z,74.57
2018-11-25T00:50:36.757Z,74.49
2018-11-25T00:51:08.177Z,74.87
2018-11-25T00:51:39.303Z,74.35
2018-11-25T00:52:10.508Z,74.45
2018-11-25T00:52:41.640Z,74.80
2018-11-25T00:53:12.886Z,74.54
2018-11-25T00:53:44.124Z,74.27
2018-11-25T00:54:15.244Z,74.16
2018-11-25T00:54:46.347Z,74.21
2018-11-25T00:55:18.005Z,74.61
2018-11-25T00:55:50.164Z,74.06
2018-11-25T00:56:21.311Z,74.07
2018-11-25T00:56:52.953Z,73.98
2018-11-25T00:57:24.067Z,74.00
2018-11-25T00:57:55.183Z,73.97
2018-11-25T00:58:26.331Z,73.72
2018-11-25T00:58:57.434Z,73.52
2018-11-25T00:59:28.680Z,73.53
2018-11-25T00:59:59.794Z,73.51
2018-11-25T01:00:30.914Z,73.72
2018-11-25T01:01:02.046Z,73.96
2018-11-25T01:01:33.209Z,73.94
2018-11-25T01:02:05.463Z,73.77
2018-11-25T01:02:36.577Z,73.39
2018-11-25T01:03:07.664Z,73.55
2018-11-25T01:03:39.768Z,74.01
2018-11-25T01:04:10.978Z,74.12
2018-11-25T01:04:42.843Z,74.23
2018-11-25T01:05:14.015Z,74.37
2018-11-25T01:05:45.177Z,74.27
2018-11-25T01:06:16.275Z,74.20
2018-11-25T01:06:47.451Z,74.04
2018-11-25T01:07:18.570Z,74.42
2018-11-25T01:07:49.695Z,74.22
2018-11-25T01:08:20.819Z,74.03
2018-11-25T01:08:51.923Z,73.62
2018-11-25T01:09:23.027Z,73.82
2018-11-25T01:09:54.819Z,73.58
2018-11-25T01:10:26.008Z,73.36
2018-11-25T01:10:57.111Z,73.49
2018-11-25T01:11:28.275Z,73.09
2018-11-25T01:11:59.435Z,73.54
2018-11-25T01:12:30.563Z,73.19
2018-11-25T01:13:01.657Z,72.79
2018-11-25T01:13:32.851Z,72.96
2018-11-25T01:14:03.984Z,73.16
2018-11-25T01:14:35.103Z,72.78
2018-11-25T01:15:06.230Z,72.52
2018-11-25T01:15:37.331Z,72.79
2018-11-25T01:16:08.554Z,72.88
2018-11-25T01:16:39.666Z,72.78
2018-11-25T01:17:10.800Z,72.65
2018-11-25T01:17:41.918Z,72.65
2018-11-25T01:18:13.383Z,72.71
2018-11-25T01:18:44.487Z,73.31
2018-11-25T01:19:15.603Z,73.32
2018-11-25T01:19:46.703Z,73.68
2018-11-25T01:20:17.845Z,73.67
2018-11-25T01:20:48.986Z,73.60
2018-11-25T01:21:20.145Z,73.46
2018-11-25T01:21:52.336Z,73.52
2018-11-25T01:22:23.783Z,73.78
2018-11-25T01:22:55.518Z,74.23
2018-11-25T01:23:27.295Z,74.05
2018-11-25T01:23:58.487Z,74.01
2018-11-25T01:24:30.307Z,74.34
2018-11-25T01:25:01.407Z,74.18
2018-11-25T01:25:32.575Z,74.18
2018-11-25T01:26:03.711Z,74.09
2018-11-25T01:26:34.882Z,74.28
2018-11-25T01:27:05.984Z,74.22
2018-11-25T01:27:37.135Z,74.46
2018-11-25T01:28:08.323Z,74.47
2018-11-25T01:28:39.480Z,74.62
2018-11-25T01:29:10.959Z,74.59
2018-11-25T01:29:42.067Z,74.59
2018-11-25T01:30:14.929Z,74.56
2018-11-25T01:30:46.697Z,74.31
2018-11-25T01:31:17.791Z,74.85
2018-11-25T01:31:49.007Z,74.63
2018-11-25T01:32:20.189Z,74.76
2018-11-25T01:32:51.920Z,74.81
2018-11-25T01:33:23.020Z,75.18
2018-11-25T01:33:54.155Z,75.16
2018-11-25T01:34:25.253Z,75.64
2018-11-25T01:35:01.102Z,75.53
2018-11-25T01:35:27.934Z,75.57
2018-11-25T01:35:59.590Z,75.75
2018-11-25T01:36:31.499Z,75.64
2018-11-25T01:37:03.238Z,75.75
2018-11-25T01:37:34.349Z,76.17
2018-11-25T01:38:05.447Z,75.75
2018-11-25T01:38:37.118Z,75.81
2018-11-25T01:39:08.225Z,76.00
2018-11-25T01:39:39.329Z,76.10
2018-11-25T01:40:10.435Z,75.60
2018-11-25T01:40:42.277Z,75.99
2018-11-25T01:41:13.390Z,76.24
2018-11-25T01:41:44.567Z,76.14
2018-11-25T01:42:15.704Z,75.79
2018-11-25T01:42:46.902Z,75.50
2018-11-25T01:43:18.064Z,75.69
2018-11-25T01:43:49.163Z,75.18
2018-11-25T01:44:21.080Z,74.90
2018-11-25T01:44:53.151Z,75.38
2018-11-25T01:45:24.294Z,75.16
2018-11-25T01:45:55.445Z,75.56
2018-11-25T01:46:27.400Z,75.75
2018-11-25T01:46:58.535Z,75.83
2018-11-25T01:47:29.651Z,76.18
2018-11-25T01:48:00.839Z,75.85
2018-11-25T01:48:32.392Z,75.74
2018-11-25T01:49:04.111Z,75.96
2018-11-25T01:49:35.227Z,75.91
2018-11-25T01:50:06.437Z,75.67
2018-11-25T01:50:37.582Z,75.44
2018-11-25T01:51:08.677Z,75.62
2018-11-25T01:51:40.107Z,75.30
2018-11-25T01:52:11.231Z,75.08
2018-11-25T01:52:42.402Z,75.42
2018-11-25T01:53:14.153Z,75.74
2018-11-25T01:53:45.263Z,75.39
2018-11-25T01:54:16.457Z,75.27
2018-11-25T01:54:47.612Z,75.28
2018-11-25T01:55:18.722Z,75.20
2018-11-25T01:55:49.822Z,75.29
2018-11-25T01:56:21.654Z,75.22
2018-11-25T01:56:52.799Z,75.19
2018-11-25T01:57:23.895Z,74.96
2018-11-25T01:57:55.036Z,75.05
2018-11-25T01:58:27.332Z,74.93
2018-11-25T01:58:58.471Z,74.94
2018-11-25T01:59:29.568Z,75.19
2018-11-25T02:00:00.800Z,74.91
2018-11-25T02:00:31.896Z,74.88
2018-11-25T02:01:03.989Z,75.32
2018-11-25T02:01:35.222Z,75.52
2018-11-25T02:02:06.319Z,75.49
2018-11-25T02:02:37.413Z,75.58
2018-11-25T02:03:08.525Z,75.86
2018-11-25T02:03:39.691Z,75.66
2018-11-25T02:04:10.791Z,75.59
2018-11-25T02:04:41.985Z,75.32
2018-11-25T02:05:13.931Z,75.50
2018-11-25T02:05:45.110Z,75.20
2018-11-25T02:06:16.278Z,75.14
2018-11-25T02:06:47.383Z,75.20
2018-11-25T02:07:18.568Z,75.14
2018-11-25T02:07:49.672Z,75.02
2018-11-25T02:08:20.882Z,75.19
2018-11-25T02:08:52.052Z,74.86
2018-11-25T02:09:23.155Z,75.03
2018-11-25T02:09:54.323Z,74.32
2018-11-25T02:10:25.435Z,73.55
2018-11-25T02:10:56.582Z,73.99
2018-11-25T02:11:27.935Z,73.81
2018-11-25T02:11:59.082Z,74.21
2018-11-25T02:12:30.177Z,73.60
2018-11-25T02:13:01.877Z,73.67
2018-11-25T02:13:33.049Z,73.38
2018-11-25T02:14:04.162Z,73.70
2018-11-25T02:14:35.284Z,73.92
2018-11-25T02:15:06.429Z,74.25
2018-11-25T02:15:37.563Z,74.03
2018-11-25T02:16:08.688Z,74.41
2018-11-25T02:16:39.806Z,74.35
2018-11-25T02:17:10.951Z,74.19
2018-11-25T02:17:42.044Z,74.51
2018-11-25T02:18:13.663Z,74.41
2018-11-25T02:18:45.936Z,74.63
2018-11-25T02:19:17.031Z,74.39
2018-11-25T02:19:48.168Z,74.71
2018-11-25T02:20:19.824Z,74.70
2018-11-25T02:20:50.967Z,74.78
2018-11-25T02:21:22.076Z,73.74
2018-11-25T02:21:53.207Z,74.38
2018-11-25T02:22:24.353Z,74.26
2018-11-25T02:22:55.502Z,74.00
2018-11-25T02:23:27.590Z,74.10
2018-11-25T02:23:59.219Z,73.74
2018-11-25T02:24:31.354Z,73.76
2018-11-25T02:25:02.483Z,73.48
2018-11-25T02:25:33.855Z,73.39
2018-11-25T02:26:06.556Z,73.36
2018-11-25T02:26:37.777Z,73.39
2018-11-25T02:27:10.016Z,73.48
2018-11-25T02:27:41.161Z,73.24
2018-11-25T02:28:12.252Z,73.42
2018-11-25T02:28:43.347Z,73.54
2018-11-25T02:29:15.113Z,73.78
2018-11-25T02:29:46.255Z,73.70
2018-11-25T02:30:17.561Z,74.33
2018-11-25T02:30:48.725Z,74.46
2018-11-25T02:31:19.883Z,74.19
2018-11-25T02:31:51.080Z,74.63
2018-11-25T02:32:23.337Z,74.42
2018-11-25T02:32:54.476Z,74.61
2018-11-25T02:33:25.762Z,74.56
2018-11-25T02:33:56.912Z,74.97
2018-11-25T02:34:28.105Z,75.15
2018-11-25T02:34:59.761Z,75.21
2018-11-25T02:35:30.971Z,75.45
2018-11-25T02:36:02.223Z,75.59
2018-11-25T02:36:33.333Z,75.63
2018-11-25T02:37:04.467Z,75.66
2018-11-25T02:37:35.663Z,75.59
2018-11-25T02:38:06.773Z,75.45
2018-11-25T02:38:38.471Z,75.98
2018-11-25T02:39:09.911Z,75.67
2018-11-25T02:39:41.019Z,75.95
2018-11-25T02:40:12.803Z,75.46
2018-11-25T02:40:44.423Z,75.52
2018-11-25T02:41:16.259Z,75.26
2018-11-25T02:41:47.367Z,75.51
2018-11-25T02:42:18.800Z,75.60
2018-11-25T02:42:49.980Z,75.78
2018-11-25T02:43:21.091Z,75.50
2018-11-25T02:43:52.427Z,75.87
2018-11-25T02:44:23.543Z,75.92
2018-11-25T02:44:54.666Z,76.08
2018-11-25T02:45:25.851Z,76.15
2018-11-25T02:45:56.967Z,75.96
2018-11-25T02:46:28.224Z,75.72
2018-11-25T02:46:59.359Z,75.34
2018-11-25T02:47:30.569Z,75.75
2018-11-25T02:48:01.698Z,75.53
2018-11-25T02:48:32.790Z,75.97
2018-11-25T02:49:04.415Z,75.81
2018-11-25T02:49:36.518Z,75.99
2018-11-25T02:50:07.636Z,75.94
2018-11-25T02:50:38.767Z,75.99
2018-11-25T02:51:09.898Z,75.70
2018-11-25T02:51:41.022Z,75.80
2018-11-25T02:52:12.118Z,75.71
2018-11-25T02:52:43.228Z,75.73
2018-11-25T02:53:14.354Z,75.55
2018-11-25T02:53:45.462Z,75.70
2018-11-25T02:54:17.587Z,75.28
2018-11-25T02:54:48.738Z,74.97
2018-11-25T02:55:19.830Z,75.18
2018-11-25T02:55:50.919Z,74.87
2018-11-25T02:56:22.092Z,74.75
2018-11-25T02:56:53.195Z,74.80
2018-11-25T02:57:24.983Z,74.58
2018-11-25T02:57:56.083Z,74.86
2018-11-25T02:58:27.451Z,74.72
2018-11-25T02:58:58.594Z,75.12
2018-11-25T02:59:29.700Z,75.26
2018-11-25T03:00:00.906Z,75.26
2018-11-25T03:00:32.052Z,75.58
2018-11-25T03:01:03.178Z,75.51
2018-11-25T03:01:34.287Z,75.35
2018-11-25T03:02:05.392Z,75.24
2018-11-25T03:02:36.505Z,75.05
2018-11-25T03:03:07.599Z,74.99
2018-11-25T03:03:38.770Z,74.79
2018-11-25T03:04:09.904Z,74.84
2018-11-25T03:04:41.015Z,74.13
2018-11-25T03:05:12.112Z,74.17
2018-11-25T03:05:43.279Z,73.97
2018-11-25T03:06:14.379Z,74.00
2018-11-25T03:06:48.048Z,73.75
2018-11-25T03:07:21.791Z,74.11
2018-11-25T03:07:53.119Z,73.79
2018-11-25T03:08:26.536Z,73.86
2018-11-25T03:08:57.638Z,73.76
2018-11-25T03:09:28.746Z,73.76
2018-11-25T03:10:00.036Z,73.75
2018-11-25T03:10:31.168Z,74.12
2018-11-25T03:11:03.968Z,74.12
2018-11-25T03:11:36.991Z,73.99
2018-11-25T03:12:08.132Z,73.96
2018-11-25T03:12:39.240Z,73.93
2018-11-25T03:13:10.473Z,73.80
2018-11-25T03:13:41.592Z,73.99
2018-11-25T03:14:12.703Z,74.08
2018-11-25T03:14:44.513Z,73.84
2018-11-25T03:15:15.611Z,74.29
2018-11-25T03:15:46.707Z,74.17
2018-11-25T03:16:18.025Z,74.42
2018-11-25T03:16:50.169Z,74.20
2018-11-25T03:17:21.345Z,74.23
2018-11-25T03:17:53.059Z,74.36
2018-11-25T03:18:24.164Z,74.18
2018-11-25T03:18:55.267Z,73.93
2018-11-25T03:19:26.362Z,73.69
2018-11-25T03:19:57.459Z,73.64
2018-11-25T03:20:28.818Z,73.93
2018-11-25T03:21:00.558Z,73.93
2018-11-25T03:21:31.786Z,74.49
2018-11-25T03:22:02.899Z,73.98
2018-11-25T03:22:34.019Z,74.13
2018-11-25T03:23:05.291Z,74.08
2018-11-25T03:23:36.395Z,74.43
2018-11-25T03:24:07.537Z,74.32
2018-11-25T03:24:38.685Z,73.85
2018-11-25T03:25:10.181Z,74.10
2018-11-25T03:25:41.338Z,74.03
2018-11-25T03:26:12.453Z,74.41
2018-11-25T03:26:44.595Z,74.54
2018-11-25T03:27:15.883Z,74.81
2018-11-25T03:27:47.064Z,74.75
2018-11-25T03:28:18.246Z,74.62
2018-11-25T03:28:50.204Z,74.79
2018-11-25T03:29:22.194Z,74.75
2018-11-25T03:29:53.336Z,74.79
2018-11-25T03:30:25.045Z,75.14
2018-11-25T03:30:56.267Z,75.12
2018-11-25T03:31:27.377Z,75.02
2018-11-25T03:31:58.515Z,75.16
2018-11-25T03:32:29.629Z,75.46
2018-11-25T03:33:00.768Z,75.43
2018-11-25T03:33:32.642Z,75.43
2018-11-25T03:34:03.837Z,75.34
2018-11-25T03:34:34.948Z,75.63
2018-11-25T03:35:06.047Z,75.47
2018-11-25T03:35:38.496Z,75.54
2018-11-25T03:36:11.888Z,75.83
2018-11-25T03:36:43.034Z,76.02
2018-11-25T03:37:15.095Z,76.33
2018-11-25T03:37:46.207Z,76.32
2018-11-25T03:38:17.302Z,76.14
2018-11-25T03:38:50.313Z,75.92
2018-11-25T03:39:21.405Z,76.11
2018-11-25T03:39:52.508Z,76.15
2018-11-25T03:40:23.603Z,76.00
2018-11-25T03:40:54.698Z,75.72
2018-11-25T03:41:25.791Z,75.95
2018-11-25T03:41:56.923Z,75.97
2018-11-25T03:42:28.015Z,76.14
2018-11-25T03:42:59.115Z,75.88
2018-11-25T03:43:30.239Z,75.79
2018-11-25T03:44:01.371Z,75.71
2018-11-25T03:44:32.462Z,75.64
2018-11-25T03:45:03.562Z,75.79
2018-11-25T03:45:34.692Z,75.35
2018-11-25T03:46:05.784Z,75.00
2018-11-25T03:46:36.952Z,75.27
2018-11-25T03:47:08.384Z,75.00
2018-11-25T03:47:39.496Z,74.94
2018-11-25T03:48:10.615Z,74.85
2018-11-25T03:48:41.718Z,74.82
2018-11-25T03:49:12.856Z,74.92
2018-11-25T03:49:43.964Z,74.60
2018-11-25T03:50:15.096Z,74.76
2018-11-25T03:50:46.197Z,74.81
2018-11-25T03:51:17.297Z,75.15
2018-11-25T03:51:48.415Z,75.06
2018-11-25T03:52:19.574Z,74.94
2018-11-25T03:52:50.712Z,75.18
2018-11-25T03:53:21.811Z,75.13
2018-11-25T03:53:52.901Z,75.54
2018-11-25T03:54:23.995Z,75.57
2018-11-25T03:54:55.799Z,75.92
2018-11-25T03:55:26.891Z,75.70
2018-11-25T03:55:57.996Z,75.28
2018-11-25T03:56:29.817Z,75.06
2018-11-25T03:57:00.974Z,75.01
2018-11-25T03:57:32.082Z,74.42
2018-11-25T03:58:03.828Z,74.25
2018-11-25T03:58:34.949Z,74.14
2018-11-25T03:59:06.084Z,74.59
2018-11-25T03:59:37.197Z,74.51
2018-11-25T04:00:08.353Z,74.48
2018-11-25T04:00:39.471Z,74.59
2018-11-25T04:01:10.579Z,74.65
2018-11-25T04:01:41.676Z,74.79
2018-11-25T04:02:12.782Z,74.70
2018-11-25T04:02:45.096Z,74.54
2018-11-25T04:03:16.288Z,74.62
2018-11-25T04:03:47.387Z,74.57
2018-11-25T04:04:18.595Z,74.60
2018-11-25T04:04:49.703Z,74.91
2018-11-25T04:05:21.386Z,74.49
2018-11-25T04:05:52.527Z,74.77
2018-11-25T04:06:23.631Z,74.69
2018-11-25T04:06:54.731Z,74.74
2018-11-25T04:07:25.837Z,74.83
2018-11-25T04:07:57.005Z,75.04
2018-11-25T04:08:28.142Z,74.82
2018-11-25T04:08:59.235Z,74.90
2018-11-25T04:09:31.473Z,75.12
2018-11-25T04:10:02.591Z,75.01
2018-11-25T04:10:33.778Z,74.63
2018-11-25T04:11:05.179Z,75.35
2018-11-25T04:11:36.293Z,75.50
2018-11-25T04:12:07.504Z,75.50
2018-11-25T04:12:38.665Z,75.91
2018-11-25T04:13:09.764Z,75.81
2018-11-25T04:13:41.738Z,75.64
2018-11-25T04:14:12.831Z,75.48
2018-11-25T04:14:43.982Z,75.13
2018-11-25T04:15:15.080Z,74.12
2018-11-25T04:15:46.207Z,74.32
2018-11-25T04:16:17.322Z,73.80
2018-11-25T04:16:48.443Z,73.62
2018-11-25T04:17:19.553Z,73.84
2018-11-25T04:17:50.699Z,74.09
2018-11-25T04:18:21.807Z,73.54
2018-11-25T04:18:52.987Z,73.65
2018-11-25T04:19:24.091Z,73.62
2018-11-25T04:19:55.201Z,73.86
2018-11-25T04:20:26.358Z,74.35
2018-11-25T04:20:57.457Z,74.28
2018-11-25T04:21:28.588Z,74.48
2018-11-25T04:21:59.692Z,74.03
2018-11-25T04:22:31.785Z,74.45
2018-11-25T04:23:02.912Z,74.51
2018-11-25T04:23:34.032Z,74.12
2018-11-25T04:24:05.208Z,74.50
2018-11-25T04:24:36.338Z,74.20
2018-11-25T04:25:07.465Z,74.52
2018-11-25T04:25:38.567Z,74.51
2018-11-25T04:26:09.690Z,74.58
2018-11-25T04:26:40.879Z,74.42
2018-11-25T04:27:13.151Z,74.69
2018-11-25T04:27:44.318Z,74.64
2018-11-25T04:28:15.427Z,74.66
2018-11-25T04:28:47.411Z,74.78
2018-11-25T04:29:19.222Z,74.83
2018-11-25T04:29:50.400Z,74.76
2018-11-25T04:30:21.540Z,75.21
2018-11-25T04:30:52.708Z,75.12
2018-11-25T04:31:24.800Z,75.30
2018-11-25T04:31:56.700Z,75.61
2018-11-25T04:32:27.804Z,75.95
2018-11-25T04:32:59.880Z,75.91
2018-11-25T04:33:31.084Z,76.05
2018-11-25T04:34:02.219Z,75.92
2018-11-25T04:34:33.904Z,76.29
2018-11-25T04:35:05.712Z,76.16
2018-11-25T04:35:36.815Z,76.10
2018-11-25T04:36:07.913Z,76.42
2018-11-25T04:36:39.011Z,76.29
2018-11-25T04:37:10.151Z,76.09
2018-11-25T04:37:41.298Z,76.04
2018-11-25T04:38:12.415Z,76.19
2018-11-25T04:38:44.521Z,76.24
2018-11-25T04:39:15.686Z,76.01
2018-11-25T04:39:46.860Z,76.03
2018-11-25T04:40:18.005Z,75.81
2018-11-25T04:40:49.125Z,75.32
2018-11-25T04:41:20.235Z,75.43
2018-11-25T04:41:51.358Z,75.46
2018-11-25T04:42:22.463Z,75.32
2018-11-25T04:42:53.565Z,75.50
2018-11-25T04:43:24.678Z,75.59
2018-11-25T04:43:55.787Z,75.30
2018-11-25T04:44:26.916Z,75.49
2018-11-25T04:44:58.075Z,75.67
2018-11-25T04:45:29.204Z,76.17
2018-11-25T04:46:00.371Z,76.07
2018-11-25T04:46:31.466Z,76.20
2018-11-25T04:47:02.638Z,76.15
2018-11-25T04:47:33.757Z,76.16
2018-11-25T04:48:05.770Z,76.02
2018-11-25T04:48:37.426Z,76.27
2018-11-25T04:49:08.576Z,76.29
2018-11-25T04:49:39.703Z,76.44
2018-11-25T04:50:10.875Z,76.60
2018-11-25T04:50:42.012Z,76.34
2018-11-25T04:51:13.139Z,76.74
2018-11-25T04:51:44.280Z,76.79
2018-11-25T04:52:15.403Z,77.18
2018-11-25T04:52:49.870Z,77.09
2018-11-25T04:53:20.992Z,77.27
2018-11-25T04:53:52.102Z,77.38
2018-11-25T04:54:23.969Z,77.38
2018-11-25T04:54:55.063Z,77.68
2018-11-25T04:55:26.250Z,77.64
2018-11-25T04:55:57.607Z,77.56
2018-11-25T04:56:28.724Z,77.51
2018-11-25T04:56:59.865Z,77.61
2018-11-25T04:57:31.083Z,77.52
2018-11-25T04:58:02.217Z,77.59
2018-11-25T04:58:33.431Z,77.56
2018-11-25T04:59:05.514Z,77.77
2018-11-25T04:59:36.637Z,77.57
2018-11-25T05:00:07.828Z,77.74
2018-11-25T05:00:38.955Z,77.69
2018-11-25T05:01:10.242Z,77.61
2018-11-25T05:01:41.343Z,77.79
2018-11-25T05:02:12.464Z,77.64
2018-11-25T05:02:43.667Z,77.55
2018-11-25T05:03:14.770Z,77.51
2018-11-25T05:03:45.900Z,77.71
2018-11-25T05:04:17.076Z,77.72
2018-11-25T05:04:48.177Z,77.70
2018-11-25T05:05:19.365Z,77.58
2018-11-25T05:05:50.708Z,77.92
2018-11-25T05:06:22.487Z,77.49
2018-11-25T05:06:53.584Z,77.90
2018-11-25T05:07:24.683Z,77.93
2018-11-25T05:07:56.311Z,77.97
2018-11-25T05:08:27.429Z,77.99
2018-11-25T05:08:58.535Z,78.31
2018-11-25T05:09:29.664Z,78.19
2018-11-25T05:10:00.989Z,78.40
2018-11-25T05:10:32.811Z,78.37
2018-11-25T05:11:03.919Z,78.32
2018-11-25T05:11:35.426Z,78.47
2018-11-25T05:12:07.580Z,78.56
2018-11-25T05:12:39.700Z,78.32
2018-11-25T05:13:10.800Z,78.35
2018-11-25T05:13:41.910Z,78.06
2018-11-25T05:14:13.625Z,78.35
2018-11-25T05:14:44.943Z,78.06
2018-11-25T05:15:16.068Z,78.43
2018-11-25T05:15:48.538Z,78.39
2018-11-25T05:16:19.630Z,78.04
2018-11-25T05:16:51.716Z,78.10
2018-11-25T05:17:22.811Z,77.83
2018-11-25T05:17:53.903Z,78.12
2018-11-25T05:18:25.023Z,78.04
2018-11-25T05:18:56.126Z,78.19
2018-11-25T05:19:27.277Z,77.99
2018-11-25T05:19:58.370Z,78.12
2018-11-25T05:20:29.514Z,77.92
2018-11-25T05:21:00.619Z,77.76
2018-11-25T05:21:31.711Z,77.93
2018-11-25T05:22:02.814Z,77.98
2018-11-25T05:22:33.915Z,77.98
2018-11-25T05:23:05.011Z,78.13
2018-11-25T05:23:37.124Z,78.20
2018-11-25T05:24:08.273Z,78.02
2018-11-25T05:24:39.439Z,77.72
2018-11-25T05:25:10.547Z,77.74
2018-11-25T05:25:41.680Z,77.91
2018-11-25T05:26:12.774Z,77.90
2018-11-25T05:26:43.880Z,77.83
2018-11-25T05:27:15.033Z,77.95
2018-11-25T05:27:46.127Z,78.11
2018-11-25T05:28:18.240Z,77.69
2018-11-25T05:28:49.337Z,77.89
2018-11-25T05:29:20.447Z,77.74
2018-11-25T05:29:51.545Z,77.83
2018-11-25T05:30:22.638Z,77.45
2018-11-25T05:30:53.883Z,77.58
2018-11-25T05:31:24.985Z,77.66
2018-11-25T05:31:56.161Z,77.49
2018-11-25T05:32:27.307Z,77.62
2018-11-25T05:32:58.418Z,77.76
2018-11-25T05:33:29.559Z,77.66
2018-11-25T05:34:00.678Z,77.84
2018-11-25T05:34:32.705Z,78.15
2018-11-25T05:35:03.814Z,78.03
2018-11-25T05:35:36.540Z,78.35
2018-11-25T05:36:08.388Z,78.54
2018-11-25T05:36:39.495Z,78.44
2018-11-25T05:37:10.611Z,78.49
2018-11-25T05:37:41.994Z,78.32
2018-11-25T05:38:13.233Z,78.63
2018-11-25T05:38:44.648Z,78.36
2018-11-25T05:39:15.767Z,78.70
2018-11-25T05:39:49.252Z,78.73
2018-11-25T05:40:21.159Z,78.67
2018-11-25T05:40:52.259Z,78.61
2018-11-25T05:41:23.403Z,78.95
2018-11-25T05:41:54.499Z,78.55
2018-11-25T05:42:25.652Z,78.33
2018-11-25T05:42:57.379Z,78.37
2018-11-25T05:43:28.483Z,78.16
2018-11-25T05:43:59.587Z,78.06
2018-11-25T05:44:30.749Z,78.16
2018-11-25T05:45:01.987Z,78.34
2018-11-25T05:45:33.096Z,77.93
2018-11-25T05:46:04.206Z,77.85
2018-11-25T05:46:35.349Z,77.89
2018-11-25T05:47:06.451Z,77.91
2018-11-25T05:47:37.543Z,77.71
2018-11-25T05:48:08.654Z,77.60
2018-11-25T05:48:39.758Z,77.86
2018-11-25T05:49:10.859Z,77.87
2018-11-25T05:49:42.003Z,77.80
2018-11-25T05:50:13.115Z,77.85
2018-11-25T05:50:45.031Z,78.16
2018-11-25T05:51:16.138Z,78.31
2018-11-25T05:51:47.236Z,78.53
2018-11-25T05:52:18.341Z,78.38
2018-11-25T05:52:49.592Z,78.72
2018-11-25T05:53:20.779Z,78.64
2018-11-25T05:53:51.975Z,78.61
2018-11-25T05:54:23.498Z,78.64
2018-11-25T05:54:54.595Z,78.73
2018-11-25T05:55:25.944Z,78.88
2018-11-25T05:55:57.247Z,78.87
2018-11-25T05:56:28.403Z,78.73
2018-11-25T05:56:59.516Z,78.86
2018-11-25T05:57:30.626Z,78.90
2018-11-25T05:58:01.833Z,78.59
2018-11-25T05:58:32.941Z,78.93
2018-11-25T05:59:04.041Z,78.63
2018-11-25T05:59:35.219Z,78.67
2018-11-25T06:00:06.345Z,78.49
2018-11-25T06:00:37.464Z,78.75
2018-11-25T06:01:08.564Z,78.74
2018-11-25T06:01:39.664Z,78.79
2018-11-25T06:02:10.781Z,78.80
2018-11-25T06:02:41.883Z,78.79
2018-11-25T06:03:13.031Z,78.93
2018-11-25T06:03:44.154Z,78.67
2018-11-25T06:04:15.269Z,78.61
2018-11-25T06:04:46.388Z,78.68
2018-11-25T06:05:17.488Z,79.04
2018-11-25T06:05:48.593Z,79.02
2018-11-25T06:06:19.718Z,78.69
2018-11-25T06:06:50.860Z,78.82
2018-11-25T06:07:21.978Z,78.33
2018-11-25T06:07:53.111Z,78.24
2018-11-25T06:08:24.938Z,78.21
2018-11-25T06:08:56.119Z,78.37
2018-11-25T06:09:27.229Z,78.35
2018-11-25T06:09:58.515Z,78.41
2018-11-25T06:10:30.391Z,77.88
2018-11-25T06:11:02.518Z,77.75
2018-11-25T06:11:33.766Z,77.74
2018-11-25T06:12:04.876Z,77.87
2018-11-25T06:12:35.970Z,77.13
2018-11-25T06:13:07.094Z,77.09
2018-11-25T06:13:38.277Z,76.88
2018-11-25T06:14:09.387Z,77.06
2018-11-25T06:14:40.515Z,76.88
2018-11-25T06:15:11.642Z,76.71
2018-11-25T06:15:42.761Z,77.28
2018-11-25T06:16:13.894Z,76.72
2018-11-25T06:16:45.014Z,77.21
2018-11-25T06:17:16.125Z,77.35
2018-11-25T06:17:47.230Z,77.28
2018-11-25T06:18:18.414Z,76.87
2018-11-25T06:18:49.518Z,76.68
2018-11-25T06:19:20.635Z,76.60
2018-11-25T06:19:51.751Z,76.35
2018-11-25T06:20:22.846Z,76.26
2018-11-25T06:20:54.011Z,76.60
2018-11-25T06:21:25.123Z,76.73
2018-11-25T06:21:56.281Z,76.67
2018-11-25T06:22:28.105Z,76.68
2018-11-25T06:22:59.263Z,76.50
2018-11-25T06:23:30.389Z,76.51
2018-11-25T06:24:01.508Z,76.62
2018-11-25T06:24:32.602Z,76.13
2018-11-25T06:25:03.758Z,75.72
2018-11-25T06:25:34.914Z,75.79
2018-11-25T06:26:06.016Z,75.63
2018-11-25T06:26:37.138Z,75.64
2018-11-25T06:27:08.246Z,75.53
2018-11-25T06:27:39.355Z,74.82
2018-11-25T06:28:10.470Z,74.68
2018-11-25T06:28:42.182Z,74.76
2018-11-25T06:29:13.301Z,74.33
2018-11-25T06:29:44.408Z,74.48
2018-11-25T06:30:15.511Z,74.53
2018-11-25T06:30:46.647Z,74.69
2018-11-25T06:31:17.763Z,74.54
2018-11-25T06:31:48.857Z,74.94
2018-11-25T06:32:19.960Z,74.60
2018-11-25T06:32:51.082Z,74.75
2018-11-25T06:33:22.218Z,74.16
2018-11-25T06:33:53.336Z,74.34
2018-11-25T06:34:24.441Z,74.29
2018-11-25T06:34:56.192Z,74.47
2018-11-25T06:35:27.297Z,74.41
2018-11-25T06:35:58.414Z,73.98
2018-11-25T06:36:30.164Z,73.95
2018-11-25T06:37:02.003Z,73.71
2018-11-25T06:37:33.118Z,73.77
2018-11-25T06:38:04.207Z,73.82
2018-11-25T06:38:35.307Z,73.96
2018-11-25T06:39:06.444Z,74.04
2018-11-25T06:39:38.215Z,74.14
2018-11-25T06:40:09.353Z,74.26
2018-11-25T06:40:40.485Z,73.64
2018-11-25T06:41:11.597Z,72.98
2018-11-25T06:41:43.502Z,72.96
2018-11-25T06:42:18.473Z,72.76
2018-11-25T06:42:49.711Z,72.73